createdAt,value
2019-03-22T00:02:23.980Z,90.00
2019-03-22T00:06:28.014Z,86.80
2019-03-22T00:10:31.590Z,90.50
2019-03-22T00:14:37.015Z,83.75
2019-03-22T00:18:40.422Z,86.67
2019-03-22T00:22:44.093Z,88.78
2019-03-22T00:26:47.692Z,87.13
2019-03-22T00:30:51.278Z,77.32
2019-03-22T00:34:54.892Z,83.45
2019-03-22T00:38:58.499Z,78.25
2019-03-22T00:43:02.106Z,90.10
2019-03-22T00:47:05.697Z,93.65
2019-03-22T00:51:09.327Z,81.85
2019-03-22T00:55:12.987Z,84.45
2019-03-22T00:59:16.591Z,89.22
2019-03-22T01:03:20.182Z,88.27
2019-03-22T01:07:23.793Z,85.32
2019-03-22T01:11:29.019Z,95.47
2019-03-22T01:15:32.600Z,91.30
2019-03-22T01:19:36.217Z,95.20
2019-03-22T01:23:39.828Z,93.52
2019-03-22T01:27:44.137Z,88.58
2019-03-22T01:31:48.682Z,95.55
2019-03-22T01:35:52.257Z,94.67
2019-03-22T01:39:55.867Z,93.75
2019-03-22T01:43:59.978Z,89.86
2019-03-22T01:48:03.588Z,86.05
2019-03-22T01:52:07.211Z,91.65
2019-03-22T01:56:10.803Z,95.43
2019-03-22T02:00:15.711Z,94.63
2019-03-22T02:04:19.374Z,92.17
2019-03-22T02:08:22.975Z,91.97
2019-03-22T02:12:26.702Z,93.30
2019-03-22T02:16:30.349Z,96.72
2019-03-22T02:20:33.951Z,85.67
2019-03-22T02:24:37.563Z,100.30
2019-03-22T02:28:41.178Z,98.15
2019-03-22T02:32:44.923Z,92.72
2019-03-22T02:36:48.845Z,96.95
2019-03-22T02:40:52.438Z,97.88
2019-03-22T02:44:56.059Z,104.87
2019-03-22T02:48:59.663Z,105.78
2019-03-22T02:53:03.362Z,108.87
2019-03-22T02:57:06.969Z,110.75
2019-03-22T03:01:10.741Z,93.30
2019-03-22T03:05:14.986Z,104.50
2019-03-22T03:09:18.587Z,94.15
2019-03-22T03:13:22.193Z,96.85
2019-03-22T03:17:25.855Z,97.45
2019-03-22T03:21:29.413Z,91.20
2019-03-22T03:25:33.064Z,96.55
2019-03-22T03:29:36.694Z,91.37
2019-03-22T03:33:40.269Z,91.25
2019-03-22T03:37:44.827Z,98.17
2019-03-22T03:41:48.740Z,90.57
2019-03-22T03:45:52.346Z,93.92
2019-03-22T03:49:56.244Z,87.93
2019-03-22T03:53:59.842Z,86.53
2019-03-22T03:58:03.780Z,83.37
2019-03-22T04:02:07.368Z,103.60
2019-03-22T04:06:11.042Z,94.00
2019-03-22T04:10:14.707Z,94.97
2019-03-22T04:14:18.328Z,106.32
2019-03-22T04:18:21.909Z,86.50
2019-03-22T04:22:25.501Z,93.00
2019-03-22T04:26:29.100Z,95.28
2019-03-22T04:30:32.718Z,105.30
2019-03-22T04:34:36.409Z,99.22
2019-03-22T04:38:39.983Z,107.72
2019-03-22T04:42:43.574Z,104.23
2019-03-22T04:46:47.419Z,117.60
2019-03-22T04:50:53.748Z,104.58
2019-03-22T04:55:00.427Z,112.05
2019-03-22T04:59:18.325Z,112.52
2019-03-22T05:03:14.066Z,104.87
2019-03-22T05:07:19.407Z,95.87
2019-03-22T05:11:23.852Z,114.23
2019-03-22T05:15:28.090Z,109.65
2019-03-22T05:19:34.824Z,108.70
2019-03-22T05:23:39.643Z,102.00
2019-03-22T05:27:45.089Z,107.52
2019-03-22T05:32:07.441Z,110.28
2019-03-22T05:36:11.043Z,115.32
2019-03-22T05:40:14.652Z,106.57
2019-03-22T05:44:18.226Z,113.72
2019-03-22T05:48:21.832Z,122.43
2019-03-22T05:52:25.446Z,109.87
2019-03-22T05:56:29.148Z,111.42
2019-03-22T06:00:32.763Z,110.95
2019-03-22T06:04:36.348Z,109.37
2019-03-22T06:08:39.949Z,109.40
2019-03-22T06:12:43.554Z,109.75
2019-03-22T06:16:47.189Z,112.75
2019-03-22T06:20:50.787Z,113.08
2019-03-22T06:24:54.387Z,115.10
2019-03-22T06:28:57.997Z,114.70
2019-03-22T06:33:01.599Z,118.72
2019-03-22T06:37:05.195Z,114.05
2019-03-22T06:41:08.802Z,121.42
2019-03-22T06:45:12.534Z,116.97
2019-03-22T06:49:16.127Z,109.32
2019-03-22T06:53:19.723Z,108.05
2019-03-22T06:57:23.330Z,113.52
2019-03-22T07:01:26.935Z,119.33
2019-03-22T07:05:30.583Z,106.03
2019-03-22T07:09:34.191Z,110.80
2019-03-22T07:13:37.799Z,111.77
2019-03-22T07:17:41.837Z,109.52
2019-03-22T07:21:45.432Z,111.45
2019-03-22T07:25:49.038Z,117.30
2019-03-22T07:29:52.619Z,113.52
2019-03-22T07:33:56.258Z,112.85
2019-03-22T07:37:59.981Z,117.25
2019-03-22T07:42:03.587Z,113.65
2019-03-22T07:46:07.230Z,110.85
2019-03-22T07:50:16.628Z,119.62
2019-03-22T07:54:20.174Z,114.45
2019-03-22T07:58:23.838Z,116.90
2019-03-22T08:02:27.417Z,115.97
2019-03-22T08:06:31.005Z,107.47
2019-03-22T08:10:34.587Z,117.30
2019-03-22T08:14:38.344Z,110.03
2019-03-22T08:18:42.020Z,122.55
2019-03-22T08:22:45.707Z,114.50
2019-03-22T08:26:49.328Z,120.85
2019-03-22T08:30:52.886Z,119.80
2019-03-22T08:34:56.488Z,142.20
2019-03-22T08:39:00.074Z,121.30
2019-03-22T08:43:03.769Z,115.40
2019-03-22T08:47:07.355Z,123.65
2019-03-22T08:51:11.001Z,127.95
2019-03-22T08:55:14.623Z,125.65
2019-03-22T08:59:18.215Z,133.05
2019-03-22T09:03:21.878Z,133.90
2019-03-22T09:07:25.528Z,127.70
2019-03-22T09:11:29.118Z,144.40
2019-03-22T09:15:41.044Z,143.35
2019-03-22T09:19:43.065Z,130.18
2019-03-22T09:23:50.148Z,136.62
2019-03-22T09:27:58.412Z,133.50
2019-03-22T09:32:02.059Z,120.62
2019-03-22T09:36:05.694Z,132.30
2019-03-22T09:40:10.030Z,124.97
2019-03-22T09:44:43.405Z,127.47
2019-03-22T09:48:47.825Z,156.65
2019-03-22T09:52:53.107Z,145.75
2019-03-22T09:57:32.061Z,145.43
2019-03-22T10:01:26.479Z,145.95
2019-03-22T10:05:30.098Z,147.45
2019-03-22T10:09:33.726Z,144.02
2019-03-22T10:13:39.978Z,138.92
2019-03-22T10:17:43.647Z,145.10
2019-03-22T10:21:48.264Z,144.80
2019-03-22T10:25:51.865Z,137.12
2019-03-22T10:29:55.460Z,136.85
2019-03-22T10:33:59.112Z,137.80
2019-03-22T10:38:04.803Z,140.37
2019-03-22T10:42:08.153Z,127.17
2019-03-22T10:46:11.785Z,129.87
2019-03-22T10:50:15.364Z,136.57
2019-03-22T10:54:18.914Z,141.55
2019-03-22T10:58:22.535Z,140.20
2019-03-22T11:02:26.118Z,132.57
2019-03-22T11:06:29.716Z,134.20
2019-03-22T11:10:33.306Z,134.12
2019-03-22T11:14:36.894Z,140.95
2019-03-22T11:18:40.482Z,141.37
2019-03-22T11:22:44.064Z,143.60
2019-03-22T11:26:47.646Z,146.07
2019-03-22T11:30:51.257Z,135.90
2019-03-22T11:34:54.826Z,137.68
2019-03-22T11:38:58.426Z,143.87
2019-03-22T11:43:08.719Z,159.00
2019-03-22T11:47:07.247Z,142.60
2019-03-22T11:51:10.833Z,150.25
2019-03-22T11:55:15.061Z,153.10
2019-03-22T11:59:18.650Z,148.62
2019-03-22T12:03:22.338Z,156.47
2019-03-22T12:07:25.918Z,158.40
2019-03-22T12:11:29.507Z,151.22
2019-03-22T12:15:33.099Z,144.68
2019-03-22T12:19:36.684Z,149.00
2019-03-22T12:23:40.288Z,148.20
2019-03-22T12:27:43.870Z,150.90
2019-03-22T12:31:47.465Z,147.30
2019-03-22T12:35:51.039Z,139.90
2019-03-22T12:39:54.623Z,135.43
2019-03-22T12:43:59.167Z,140.37
2019-03-22T12:48:02.754Z,137.65
2019-03-22T12:52:13.556Z,132.06
2019-03-22T12:56:25.240Z,141.97
2019-03-22T13:00:31.372Z,132.07
2019-03-22T13:08:37.815Z,127.27
2019-03-22T13:12:41.399Z,120.87
2019-03-22T13:16:45.010Z,133.72
2019-03-22T13:20:48.597Z,126.87
2019-03-22T13:24:52.198Z,124.90
2019-03-22T13:28:55.883Z,120.53
2019-03-22T13:32:59.630Z,118.95
2019-03-22T13:37:03.222Z,117.62
2019-03-22T13:41:11.499Z,117.53
2019-03-22T13:45:15.106Z,108.32
2019-03-22T13:49:18.687Z,110.70
2019-03-22T13:53:22.266Z,122.25
2019-03-22T13:57:25.862Z,112.60
2019-03-22T14:01:29.461Z,110.35
2019-03-22T14:05:33.045Z,106.20
2019-03-22T14:09:36.734Z,107.78
2019-03-22T14:13:40.326Z,106.22
2019-03-22T14:17:44.356Z,110.52
2019-03-22T14:21:47.928Z,107.32
2019-03-22T14:25:51.511Z,101.37
2019-03-22T14:29:55.281Z,98.80
2019-03-22T14:33:58.858Z,99.65
2019-03-22T14:38:02.514Z,101.80
2019-03-22T14:42:06.103Z,102.72
2019-03-22T14:46:09.691Z,100.82
2019-03-22T14:50:13.502Z,95.95
2019-03-22T14:54:17.230Z,94.25
2019-03-22T14:58:20.822Z,89.60
2019-03-22T15:02:24.590Z,102.15
2019-03-22T15:06:28.118Z,93.27
2019-03-22T15:10:31.704Z,92.72
2019-03-22T15:14:45.917Z,104.97
2019-03-22T15:18:54.239Z,102.40
2019-03-22T15:23:13.436Z,92.10
2019-03-22T15:27:27.294Z,94.25
2019-03-22T15:31:48.776Z,86.70
2019-03-22T15:35:54.054Z,95.95
2019-03-22T15:40:04.804Z,89.33
2019-03-22T15:44:08.705Z,93.30
2019-03-22T15:48:12.402Z,98.13
2019-03-22T15:52:15.983Z,97.72
2019-03-22T15:56:19.595Z,102.72
2019-03-22T16:00:23.182Z,101.90
2019-03-22T16:04:26.778Z,99.62
2019-03-22T16:08:30.468Z,107.10
2019-03-22T16:12:34.063Z,104.43
2019-03-22T16:16:37.744Z,106.92
2019-03-22T16:20:41.319Z,99.55
2019-03-22T16:24:44.915Z,104.35
2019-03-22T16:28:48.504Z,108.87
2019-03-22T16:32:52.087Z,106.58
2019-03-22T16:36:55.675Z,103.53
2019-03-22T16:40:59.474Z,110.65
2019-03-22T16:45:03.344Z,109.83
2019-03-22T16:49:06.930Z,109.55
2019-03-22T16:53:10.512Z,109.27
2019-03-22T16:57:14.103Z,102.95
2019-03-22T17:01:17.784Z,117.08
2019-03-22T17:05:21.376Z,114.32
2019-03-22T17:09:24.981Z,110.75
2019-03-22T17:13:28.651Z,112.03
2019-03-22T17:25:59.759Z,122.22
2019-03-22T17:30:04.897Z,118.57
2019-03-22T17:34:14.158Z,129.20
2019-03-22T17:38:13.721Z,125.60
2019-03-22T17:42:17.327Z,120.80
2019-03-22T17:50:32.286Z,125.05
2019-03-22T17:54:35.899Z,134.82
2019-03-22T17:58:39.521Z,126.20
2019-03-22T18:02:43.193Z,137.30
2019-03-22T18:06:46.775Z,159.20
2019-03-22T18:10:50.411Z,137.05
2019-03-22T18:14:54.258Z,299.42
2019-03-22T18:18:58.106Z,143.43
2019-03-22T18:23:01.950Z,146.25
2019-03-22T18:27:05.583Z,143.65
2019-03-22T18:31:09.383Z,149.93
2019-03-22T18:35:13.467Z,151.65
2019-03-22T18:39:17.388Z,151.12
2019-03-22T18:43:21.102Z,162.55
2019-03-22T18:47:24.967Z,165.68
2019-03-22T18:51:28.578Z,160.97
2019-03-22T18:55:32.528Z,176.60
2019-03-22T18:59:36.282Z,157.60
2019-03-22T19:03:41.083Z,162.20
2019-03-22T19:07:44.891Z,163.60
2019-03-22T19:11:48.846Z,169.32
2019-03-22T19:15:52.615Z,164.50
2019-03-22T19:19:56.399Z,164.88
2019-03-22T19:24:00.140Z,163.60
2019-03-22T19:28:03.894Z,168.93
2019-03-22T19:32:13.367Z,173.53
2019-03-22T19:36:13.362Z,181.57
2019-03-22T19:40:17.409Z,189.77
2019-03-22T19:44:21.318Z,198.05
2019-03-22T19:48:25.296Z,188.00
2019-03-22T19:52:29.138Z,202.47
2019-03-22T19:56:33.144Z,208.80
2019-03-22T20:00:42.971Z,200.43
2019-03-22T20:04:51.336Z,203.45
2019-03-22T20:08:55.519Z,207.65
2019-03-22T20:12:59.506Z,208.65
2019-03-22T20:17:03.169Z,217.50
2019-03-22T20:21:06.855Z,218.37
2019-03-22T20:25:11.111Z,200.68
2019-03-22T20:29:14.716Z,218.63
2019-03-22T20:33:18.732Z,207.05
2019-03-22T20:37:22.324Z,213.75
2019-03-22T20:41:25.916Z,213.12
2019-03-22T20:45:29.536Z,225.00
2019-03-22T20:49:33.151Z,234.77
2019-03-22T20:53:36.773Z,223.78
2019-03-22T20:57:40.429Z,233.10
2019-03-22T21:01:44.033Z,225.78
2019-03-22T21:05:48.555Z,227.10
2019-03-22T21:09:52.219Z,223.07
2019-03-22T21:13:55.819Z,216.63
2019-03-22T21:17:59.430Z,239.30
2019-03-22T21:22:03.093Z,235.48
2019-03-22T21:26:06.748Z,257.00
2019-03-22T21:30:12.549Z,258.27
2019-03-22T21:34:16.177Z,233.20
2019-03-22T21:38:19.756Z,232.72
2019-03-22T21:42:23.368Z,248.43
2019-03-22T21:46:27.004Z,225.87
2019-03-22T21:50:30.603Z,253.83
2019-03-22T21:54:34.223Z,247.63
2019-03-22T21:58:37.907Z,257.40
2019-03-22T22:02:41.500Z,270.20
2019-03-22T22:06:47.812Z,248.95
2019-03-22T22:10:59.404Z,254.63
2019-03-22T22:14:55.697Z,240.87
2019-03-22T22:18:59.294Z,259.57
2019-03-22T22:23:02.884Z,258.90
2019-03-22T22:27:13.811Z,258.60
2019-03-22T22:31:11.823Z,271.53
2019-03-22T22:35:15.420Z,279.50
2019-03-22T22:39:19.022Z,269.55
2019-03-22T22:43:22.623Z,284.30
2019-03-22T22:47:26.212Z,277.85
2019-03-22T22:51:29.800Z,283.27
2019-03-22T22:55:33.394Z,260.82
2019-03-22T22:59:36.984Z,276.88
2019-03-22T23:03:40.756Z,271.62
2019-03-22T23:07:44.357Z,295.23
2019-03-22T23:11:47.960Z,296.20
2019-03-22T23:15:51.564Z,283.85
2019-03-22T23:19:55.161Z,287.35
2019-03-22T23:23:58.760Z,267.00
2019-03-22T23:28:02.361Z,295.67
2019-03-22T23:32:05.956Z,270.97
2019-03-22T23:36:19.499Z,275.70
2019-03-22T23:40:14.852Z,252.27
2019-03-22T23:44:18.451Z,268.10
2019-03-22T23:48:22.040Z,256.27
2019-03-22T23:52:25.627Z,259.00
2019-03-22T23:56:29.224Z,288.42
